<?xml version="1.0" encoding="UTF-8" standalone="no" ?>
<gpx xmlns="http://www.topografix.com/GPX/1/1" xmlns:xsi="http://www.w3.org/2001/XMLSchema-instance" xsi:schemaLocation="http://www.topografix.com/GPX/1/1 http://www.topografix.com/GPX/1/1/gpx.xsd" version="1.1" creator="VisuGPX - https://www.visugpx.com">
  <metadata>
    <name>Macif 18 - Jeudi 5 Juin 2014</name>
    <desc><![CDATA[Macif 18 - Jeudi 5 Juin 2014]]></desc>
  </metadata>
  <trk>
    <name><![CDATA[Macif 18 - Jeudi 5 Juin 2014_1]]></name>
    <trkseg>
      <trkpt lat="46.20669" lon="-1.3682">
        <ele>62</ele>
        <time>2014-06-05T07:10:22Z</time>
      </trkpt>
      <trkpt lat="46.20655" lon="-1.36822">
        <ele>61</ele>
        <time>2014-06-05T07:15:26Z</time>
      </trkpt>
      <trkpt lat="46.20854" lon="-1.36533">
        <ele>56</ele>
        <time>2014-06-05T07:20:29Z</time>
      </trkpt>
      <trkpt lat="46.21023" lon="-1.36318">
        <ele>39</ele>
        <time>2014-06-05T07:25:31Z</time>
      </trkpt>
      <trkpt lat="46.21195" lon="-1.35945">
        <ele>45</ele>
        <time>2014-06-05T07:30:34Z</time>
      </trkpt>
      <trkpt lat="46.21472" lon="-1.3511">
        <ele>37</ele>
        <time>2014-06-05T07:35:38Z</time>
      </trkpt>
      <trkpt lat="46.2164" lon="-1.33894">
        <ele>54</ele>
        <time>2014-06-05T07:41:05Z</time>
      </trkpt>
      <trkpt lat="46.21804" lon="-1.32513">
        <ele>38</ele>
        <time>2014-06-05T07:47:03Z</time>
      </trkpt>
      <trkpt lat="46.21968" lon="-1.31361">
        <ele>62</ele>
        <time>2014-06-05T07:52:20Z</time>
      </trkpt>
      <trkpt lat="46.2202" lon="-1.30224">
        <ele>60</ele>
        <time>2014-06-05T07:57:24Z</time>
      </trkpt>
      <trkpt lat="46.22105" lon="-1.29151">
        <ele>44</ele>
        <time>2014-06-05T08:02:27Z</time>
      </trkpt>
      <trkpt lat="46.22197" lon="-1.28074">
        <ele>37</ele>
        <time>2014-06-05T08:07:31Z</time>
      </trkpt>
      <trkpt lat="46.21812" lon="-1.28037">
        <ele>46</ele>
        <time>2014-06-05T08:12:34Z</time>
      </trkpt>
      <trkpt lat="46.21084" lon="-1.28453">
        <ele>62</ele>
        <time>2014-06-05T08:17:38Z</time>
      </trkpt>
      <trkpt lat="46.20434" lon="-1.28981">
        <ele>60</ele>
        <time>2014-06-05T08:22:42Z</time>
      </trkpt>
      <trkpt lat="46.19721" lon="-1.2952">
        <ele>54</ele>
        <time>2014-06-05T08:28:04Z</time>
      </trkpt>
      <trkpt lat="46.19867" lon="-1.28569">
        <ele>48</ele>
        <time>2014-06-05T08:33:08Z</time>
      </trkpt>
      <trkpt lat="46.2009" lon="-1.27595">
        <ele>55</ele>
        <time>2014-06-05T08:38:10Z</time>
      </trkpt>
      <trkpt lat="46.20186" lon="-1.26532">
        <ele>54</ele>
        <time>2014-06-05T08:43:13Z</time>
      </trkpt>
      <trkpt lat="46.20125" lon="-1.25404">
        <ele>58</ele>
        <time>2014-06-05T08:49:10Z</time>
      </trkpt>
      <trkpt lat="46.20016" lon="-1.24502">
        <ele>43</ele>
        <time>2014-06-05T08:54:14Z</time>
      </trkpt>
      <trkpt lat="46.1992" lon="-1.23526">
        <ele>53</ele>
        <time>2014-06-05T09:00:16Z</time>
      </trkpt>
      <trkpt lat="46.19537" lon="-1.24084">
        <ele>31</ele>
        <time>2014-06-05T09:05:17Z</time>
      </trkpt>
      <trkpt lat="46.18986" lon="-1.24594">
        <ele>33</ele>
        <time>2014-06-05T09:10:27Z</time>
      </trkpt>
      <trkpt lat="46.18546" lon="-1.24894">
        <ele>49</ele>
        <time>2014-06-05T09:15:31Z</time>
      </trkpt>
      <trkpt lat="46.17982" lon="-1.25259">
        <ele>37</ele>
        <time>2014-06-05T09:20:35Z</time>
      </trkpt>
      <trkpt lat="46.17467" lon="-1.25451">
        <ele>47</ele>
        <time>2014-06-05T09:25:37Z</time>
      </trkpt>
      <trkpt lat="46.17508" lon="-1.24612">
        <ele>56</ele>
        <time>2014-06-05T09:30:41Z</time>
      </trkpt>
      <trkpt lat="46.17106" lon="-1.24849">
        <ele>55</ele>
        <time>2014-06-05T09:35:45Z</time>
      </trkpt>
      <trkpt lat="46.16824" lon="-1.24695">
        <ele>61</ele>
        <time>2014-06-05T09:42:07Z</time>
      </trkpt>
      <trkpt lat="46.16144" lon="-1.2519">
        <ele>45</ele>
        <time>2014-06-05T09:48:07Z</time>
      </trkpt>
      <trkpt lat="46.15549" lon="-1.25824">
        <ele>45</ele>
        <time>2014-06-05T09:53:11Z</time>
      </trkpt>
      <trkpt lat="46.15085" lon="-1.26081">
        <ele>62</ele>
        <time>2014-06-05T09:58:13Z</time>
      </trkpt>
      <trkpt lat="46.15086" lon="-1.26122">
        <ele>47</ele>
        <time>2014-06-05T10:03:18Z</time>
      </trkpt>
      <trkpt lat="46.15154" lon="-1.26079">
        <ele>52</ele>
        <time>2014-06-05T10:08:23Z</time>
      </trkpt>
      <trkpt lat="46.15123" lon="-1.26051">
        <ele>38</ele>
        <time>2014-06-05T10:13:27Z</time>
      </trkpt>
      <trkpt lat="46.15111" lon="-1.26122">
        <ele>45</ele>
        <time>2014-06-05T10:18:44Z</time>
      </trkpt>
      <trkpt lat="46.15123" lon="-1.26124">
        <ele>39</ele>
        <time>2014-06-05T10:24:04Z</time>
      </trkpt>
      <trkpt lat="46.1513" lon="-1.26115">
        <ele>35</ele>
        <time>2014-06-05T11:32:45Z</time>
      </trkpt>
      <trkpt lat="46.15128" lon="-1.26128">
        <ele>50</ele>
        <time>2014-06-05T12:10:43Z</time>
      </trkpt>
      <trkpt lat="46.15125" lon="-1.26111">
        <ele>37</ele>
        <time>2014-06-05T12:21:06Z</time>
      </trkpt>
      <trkpt lat="46.14905" lon="-1.25938">
        <ele>50</ele>
        <time>2014-06-05T12:52:16Z</time>
      </trkpt>
      <trkpt lat="46.14652" lon="-1.25736">
        <ele>42</ele>
        <time>2014-06-05T12:57:19Z</time>
      </trkpt>
      <trkpt lat="46.14448" lon="-1.25583">
        <ele>41</ele>
        <time>2014-06-05T13:03:01Z</time>
      </trkpt>
      <trkpt lat="46.14146" lon="-1.25645">
        <ele>42</ele>
        <time>2014-06-05T13:09:06Z</time>
      </trkpt>
      <trkpt lat="46.13934" lon="-1.25584">
        <ele>35</ele>
        <time>2014-06-05T13:14:19Z</time>
      </trkpt>
      <trkpt lat="46.13582" lon="-1.25392">
        <ele>33</ele>
        <time>2014-06-05T13:19:30Z</time>
      </trkpt>
      <trkpt lat="46.13279" lon="-1.25153">
        <ele>52</ele>
        <time>2014-06-05T13:24:33Z</time>
      </trkpt>
      <trkpt lat="46.13034" lon="-1.2501">
        <ele>46</ele>
        <time>2014-06-05T13:29:37Z</time>
      </trkpt>
      <trkpt lat="46.1278" lon="-1.2471">
        <ele>32</ele>
        <time>2014-06-05T13:34:41Z</time>
      </trkpt>
      <trkpt lat="46.12628" lon="-1.24484">
        <ele>49</ele>
        <time>2014-06-05T13:39:46Z</time>
      </trkpt>
      <trkpt lat="46.12692" lon="-1.24392">
        <ele>28</ele>
        <time>2014-06-05T13:45:54Z</time>
      </trkpt>
      <trkpt lat="46.12741" lon="-1.24277">
        <ele>37</ele>
        <time>2014-06-05T13:51:07Z</time>
      </trkpt>
      <trkpt lat="46.12798" lon="-1.24055">
        <ele>44</ele>
        <time>2014-06-05T13:56:11Z</time>
      </trkpt>
      <trkpt lat="46.12793" lon="-1.23846">
        <ele>29</ele>
        <time>2014-06-05T14:01:16Z</time>
      </trkpt>
      <trkpt lat="46.12869" lon="-1.23642">
        <ele>37</ele>
        <time>2014-06-05T14:06:19Z</time>
      </trkpt>
      <trkpt lat="46.1307" lon="-1.22816">
        <ele>40</ele>
        <time>2014-06-05T14:12:07Z</time>
      </trkpt>
      <trkpt lat="46.13458" lon="-1.21726">
        <ele>34</ele>
        <time>2014-06-05T14:17:09Z</time>
      </trkpt>
      <trkpt lat="46.13802" lon="-1.20464">
        <ele>45</ele>
        <time>2014-06-05T14:22:21Z</time>
      </trkpt>
      <trkpt lat="46.14152" lon="-1.19257">
        <ele>31</ele>
        <time>2014-06-05T14:27:25Z</time>
      </trkpt>
      <trkpt lat="46.14415" lon="-1.18183">
        <ele>44</ele>
        <time>2014-06-05T14:32:28Z</time>
      </trkpt>
      <trkpt lat="46.14706" lon="-1.17395">
        <ele>44</ele>
        <time>2014-06-05T14:37:32Z</time>
      </trkpt>
      <trkpt lat="46.14768" lon="-1.1689">
        <ele>23</ele>
        <time>2014-06-05T14:42:36Z</time>
      </trkpt>
      <trkpt lat="46.14714" lon="-1.16845">
        <ele>62</ele>
        <time>2014-06-05T14:48:41Z</time>
      </trkpt>
      <trkpt lat="46.14658" lon="-1.16864">
        <ele>68</ele>
        <time>2014-06-05T14:55:33Z</time>
      </trkpt>
      <trkpt lat="46.14456" lon="-1.16829">
        <ele>50</ele>
        <time>2014-06-05T15:01:03Z</time>
      </trkpt>
      <trkpt lat="46.14434" lon="-1.16824">
        <ele>51</ele>
        <time>2014-06-05T15:07:35Z</time>
      </trkpt>
      <trkpt lat="46.14482" lon="-1.16853">
        <ele>61</ele>
        <time>2014-06-05T15:17:43Z</time>
      </trkpt>
      <trkpt lat="46.14509" lon="-1.16834">
        <ele>44</ele>
        <time>2014-06-05T15:27:51Z</time>
      </trkpt>
      <trkpt lat="46.14706" lon="-1.1677">
        <ele>41</ele>
        <time>2014-06-05T15:33:05Z</time>
      </trkpt>
      <trkpt lat="46.14714" lon="-1.16796">
        <ele>52</ele>
        <time>2014-06-05T15:43:13Z</time>
      </trkpt>
      <trkpt lat="46.14663" lon="-1.16867">
        <ele>65</ele>
        <time>2014-06-05T15:49:06Z</time>
      </trkpt>
      <trkpt lat="46.14677" lon="-1.16765">
        <ele>43</ele>
        <time>2014-06-05T15:54:11Z</time>
      </trkpt>
      <trkpt lat="46.14481" lon="-1.16502">
        <ele>71</ele>
        <time>2014-06-05T15:59:16Z</time>
      </trkpt>
      <trkpt lat="46.14488" lon="-1.16493">
        <ele>47</ele>
        <time>2014-06-05T16:04:20Z</time>
      </trkpt>
      <trkpt lat="46.14472" lon="-1.16485">
        <ele>46</ele>
        <time>2014-06-05T16:10:03Z</time>
      </trkpt>
      <trkpt lat="46.14482" lon="-1.16515">
        <ele>69</ele>
        <time>2014-06-05T16:16:39Z</time>
      </trkpt>
      <trkpt lat="46.14469" lon="-1.16526">
        <ele>57</ele>
        <time>2014-06-05T16:27:07Z</time>
      </trkpt>
    </trkseg>
  </trk>
</gpx>